• Join FlightAware (Why Join?)
  • Login
  • US Flag 
12:31AM EDT


 

Airport Tracker/Info


-or-


 

Live Flight TrackerFlight Track Log ✈ RPA3436 ✈ 06-Jul-2013 ✈ KIND - KDCA

Flight Track Log - Related Links

Times and Time Zones

All times are in EDT time to prevent confusion due to time zone crossing. See the RPA3436 flight status page for this flight to view local times or setup timezone preferences in your user account.

Time Position Orientation Groundspeed Altitude Reporting Facility
EDT Latitude Longitude Course Direction KTS MPH feet Rate Location/Type
07:41AM 39.7000 -86.3000 79° East 134 154 2,000  Level Indianapolis TRACON
07:42AM 39.6833 -86.3167 218° Southwest 161 185 3,600 1,800 Climbing Indianapolis TRACON
07:42AM 39.6586 -86.3008 154° Southeast 234 269 4,300 2,880 Climbing Indianapolis Center
07:43AM 39.6717 -86.2136 79° East 258 297 8,200 3,540 Climbing Indianapolis Center
07:44AM 39.7788 -85.8285 83° East  Level FlightAware Approximate
07:44AM 39.6933 -86.1211 73° East 272 313 11,500  Level Indianapolis Center
07:45AM 39.7941 -85.7137 79° East  Level FlightAware Approximate
07:45AM 39.7236 -85.9833 74° East 332 382 15,300  Level Indianapolis Center
07:46AM 39.8137 -85.5862 79° East  Level FlightAware Approximate
07:46AM 39.7489 -85.8672 74° East 337 388 18,100  Level Indianapolis Center
07:47AM 39.7767 -85.7408 74° East 364 419 20,600 2,400 Climbing Indianapolis Center
07:49AM 39.8053 -85.6078 74° East 381 438 23,000 2,160 Climbing Indianapolis Center
07:50AM 39.8356 -85.4692 74° East 398 458 25,100 2,160 Climbing Indianapolis Center
07:51AM 39.8664 -85.3247 74° East 414 476 27,400 1,920 Climbing Indianapolis Center
07:52AM 39.8878 -85.1769 79° East 417 480 29,100 1,740 Climbing Indianapolis Center
07:53AM 39.8956 -85.0275 86° East 417 480 31,000 900 Climbing Indianapolis Center
07:54AM 39.9142 -84.8556 82° East 413 475 31,000  Level Indianapolis Center
07:55AM 39.9308 -84.7042 82° East 417 480 31,000  Level Indianapolis Center
07:56AM 39.9481 -84.5564 81° East 412 474 31,000  Level Indianapolis Center
07:57AM 39.9639 -84.4122 82° East 399 459 31,000  Level Indianapolis Center
07:58AM 39.9806 -84.2656 82° East 404 465 31,000  Level Indianapolis Center
07:59AM 39.9969 -84.1189 82° East 406 467 31,000  Level Indianapolis Center
08:00AM 40.0003 -83.9744 88° East 393 452 31,000  Level Indianapolis Center
08:01AM 39.9936 -83.8317 93° East 390 449 31,000  Level Indianapolis Center
08:02AM 39.9867 -83.6897 94° East 388 447 31,000  Level Indianapolis Center
08:03AM 39.9803 -83.5456 93° East 391 450 31,000  Level Indianapolis Center
08:04AM 39.9728 -83.3978 94° East 396 456 31,000  Level Indianapolis Center
08:05AM 39.9642 -83.2522 94° East 394 453 31,000  Level Indianapolis Center
08:06AM 39.9561 -83.1081 94° East 393 452 31,000  Level Indianapolis Center
08:07AM 39.9483 -82.9642 94° East 393 452 31,000  Level Indianapolis Center
08:08AM 39.9400 -82.8203 94° East 395 455 31,000  Level Indianapolis Center
08:09AM 39.9314 -82.6764 94° East 394 453 31,000  Level Indianapolis Center
08:10AM 39.9231 -82.5328 94° East 395 455 31,000  Level Indianapolis Center
08:11AM 39.9142 -82.3894 95° East 394 453 31,000  Level Indianapolis Center
08:12AM 39.9056 -82.2453 94° East 395 455 31,000  Level Indianapolis Center
08:13AM 39.8967 -82.1019 95° East 394 453 31,000  Level Indianapolis Center
08:14AM 39.8875 -81.9583 95° East 395 455 31,000  Level Indianapolis Center
08:15AM 39.8772 -81.8150 95° East 395 455 31,000  Level Indianapolis Center
08:16AM 39.8683 -81.6722 95° East 392 451 31,000  Level Indianapolis Center
08:17AM 39.8358 -81.5419 108° East 377 434 31,000  Level Indianapolis Center
08:18AM 39.8011 -81.4261 111° Southeast 377 434 31,000  Level Indianapolis Center
08:19AM 39.7614 -81.2992 112° Southeast 378 435 31,000  Level Indianapolis Center
08:20AM 39.7136 -81.1450 112° Southeast 382 440 31,000  Level Indianapolis Center
08:21AM 39.6750 -81.0178 111° Southeast 379 436 31,000  Level Indianapolis Center
08:22AM 39.6350 -80.8911 112° Southeast 379 436 31,000  Level Indianapolis Center
08:23AM 39.5953 -80.7644 112° Southeast 378 435 31,000  Level Indianapolis Center
08:24AM 39.5553 -80.6369 112° Southeast 380 437 31,000  Level Indianapolis Center
08:25AM 39.5139 -80.5097 113° Southeast 382 440 31,000  Level Indianapolis Center
08:27AM 39.4453 -80.2842 111° Southeast 372 428 31,000  Level Washington Center
08:28AM 39.4061 -80.1581 112° Southeast 378 435 31,000  Level Washington Center
08:29AM 39.3650 -80.0344 113° Southeast 378 435 31,000  Level Washington Center
08:30AM 39.3236 -79.9086 113° Southeast 378 435 31,000  Level Washington Center
08:31AM 39.2928 -79.7808 107° East 378 435 31,000  Level Washington Center
08:32AM 39.2811 -79.6378 96° East 378 435 31,000  Level Washington Center
08:33AM 39.2711 -79.5006 95° East 388 447 31,000 -540 Level Washington Center
08:34AM 39.2589 -79.3606 96° East 388 447 30,000 -1,620 Descending Washington Center
08:35AM 39.2447 -79.2097 97° East 388 447 27,800 -1,680 Descending Washington Center
08:36AM 39.2306 -79.0561 97° East 400 460 26,700 -1,320 Descending Washington Center
08:37AM 39.2161 -78.9003 97° East 425 489 25,200 -1,920 Descending Washington Center
08:38AM 39.2014 -78.7467 97° East 425 489 22,900 -2,580 Descending Washington Center
08:39AM 39.1847 -78.5881 98° East 430 495 20,000 -2,580 Descending Washington Center
08:40AM 39.1717 -78.4403 96° East 430 495 17,900 -1,560 Descending Washington Center
08:41AM 39.1478 -78.3003 102° East 413 475 17,000 -480 Descending Washington Center
08:42AM 39.1131 -78.1625 108° East 401 461 17,000 -540 Level Washington Center
08:43AM 39.0786 -78.0247 108° East 401 461 16,000 -1,680 Descending Washington Center
08:44AM 39.0436 -77.8928 109° East 401 461 13,800 -2,100 Descending Washington Center
08:45AM 39.0106 -77.7661 109° East 388 447 11,800 -1,860 Descending Washington Center
08:46AM 38.9811 -77.6506 108° East 346 398 10,100 -1,740 Descending Washington Center
08:47AM 38.9667 -77.5833 105° East 293 337 9,000 -1,320 Descending Potomac TRACON
08:48AM 38.9500 -77.4833 102° East 264 304 8,000 -480 Descending Potomac TRACON
08:49AM 38.9833 -77.4167 57° Northeast 243 280 8,100 -480 Climbing Potomac TRACON
08:50AM 39.0000 -77.3500 72° East 206 237 7,200 -900 Descending Potomac TRACON
08:51AM 39.0333 -77.2833 57° Northeast 204 235 6,400 -900 Descending Potomac TRACON
08:51AM 39.0333 -77.2333 90° East 204 235 5,500 -1,260 Descending Potomac TRACON
08:52AM 39.0000 -77.1833 131° Southeast 183 211 4,000 -1,560 Descending Potomac TRACON
08:53AM 38.9667 -77.1500 142° Southeast 188 216 2,400 -1,620 Descending Potomac TRACON